Time;durP1;ratioP1;P1;durP2;ratioP2;P2;SDS_P1;SDS_P2;PMS_P1;PMS_P2;Temp;Humidity;BMP_temperature;BMP_pressure;BME280_temperature;BME280_humidity;BME280_pressure;Samples;Min_cycle;Max_cycle;Signal;HPM_P1;HPM_P2
2022/03/28 00:01:23;;;;;;;7.82;5.22;;;7.00;99.90;;;;;;5009738;28;20113;-49
2022/03/28 00:03:49;;;;;;;8.35;5.15;;;7.00;99.90;;;;;;5011740;28;20072;-50
2022/03/28 00:06:14;;;;;;;7.23;5.43;;;7.00;99.90;;;;;;5009305;28;20161;-50
2022/03/28 00:08:40;;;;;;;4.33;3.93;;;7.00;99.90;;;;;;5011042;28;20058;-48
2022/03/28 00:11:06;;;;;;;6.07;4.20;;;7.00;99.90;;;;;;5007566;28;20477;-49
2022/03/28 00:13:33;;;;;;;6.07;4.43;;;7.00;99.90;;;;;;4993321;28;20118;-49
2022/03/28 00:15:59;;;;;;;7.78;4.60;;;7.10;99.90;;;;;;5001043;28;20125;-49
2022/03/28 00:18:24;;;;;;;19.63;5.53;;;7.10;99.90;;;;;;4999560;28;20038;-51
2022/03/28 00:20:53;;;;;;;15.25;4.55;;;7.10;99.90;;;;;;4997840;28;20129;-49
2022/03/28 00:23:22;;;;;;;8.50;4.97;;;7.10;99.90;;;;;;5012795;28;20048;-49
2022/03/28 00:25:48;;;;;;;11.80;4.88;;;7.10;99.90;;;;;;5009758;28;20041;-49
2022/03/28 00:28:14;;;;;;;8.82;4.50;;;7.10;99.90;;;;;;5002641;28;20573;-49
2022/03/28 00:30:41;;;;;;;6.60;4.63;;;7.10;99.90;;;;;;5001634;28;20042;-49
2022/03/28 00:33:06;;;;;;;6.20;3.42;;;7.10;99.90;;;;;;5010841;28;20088;-50
2022/03/28 00:35:33;;;;;;;5.57;4.47;;;7.10;99.90;;;;;;5009381;28;20073;-49
2022/03/28 00:37:59;;;;;;;8.43;3.90;;;7.10;99.90;;;;;;4994557;28;20045;-52
2022/03/28 00:40:27;;;;;;;4.47;3.27;;;7.10;99.90;;;;;;4997172;28;20129;-49
2022/03/28 00:42:54;;;;;;;3.80;2.53;;;7.10;99.90;;;;;;5004898;28;20281;-49
2022/03/28 00:45:19;;;;;;;7.47;3.08;;;7.10;99.90;;;;;;4993341;28;20042;-50
2022/03/28 00:47:45;;;;;;;7.80;2.97;;;7.10;99.90;;;;;;5003142;28;20034;-50
2022/03/28 00:50:11;;;;;;;4.10;2.45;;;7.00;99.90;;;;;;4999166;28;20289;-49
2022/03/28 00:52:39;;;;;;;8.60;2.10;;;7.00;99.90;;;;;;5004202;28;20033;-51
2022/03/28 00:55:07;;;;;;;3.00;2.10;;;7.00;99.90;;;;;;4999537;28;20042;-50
2022/03/28 00:57:33;;;;;;;2.40;1.95;;;7.00;99.90;;;;;;4999400;28;20035;-49
2022/03/28 01:00:00;;;;;;;3.90;1.05;;;7.00;99.90;;;;;;5006744;28;20042;-49
2022/03/28 01:02:26;;;;;;;29.95;2.22;;;7.00;99.90;;;;;;5003765;28;20434;-50
2022/03/28 01:04:52;;;;;;;1.60;1.17;;;7.00;99.90;;;;;;5010585;28;20053;-49
2022/03/28 01:07:17;;;;;;;8.57;1.85;;;6.90;99.90;;;;;;5000707;28;20045;-52
2022/03/28 01:09:44;;;;;;;2.63;1.20;;;6.90;99.90;;;;;;5007243;28;20065;-50
2022/03/28 01:12:10;;;;;;;3.92;1.42;;;6.90;99.90;;;;;;5004198;28;20281;-50
2022/03/28 01:14:37;;;;;;;24.95;2.35;;;6.90;99.90;;;;;;5011167;28;20046;-52
2022/03/28 01:19:53;;;;;;;4.13;1.83;;;6.90;99.90;;;;;;4994512;28;20126;-51
2022/03/28 01:22:19;;;;;;;4.85;2.00;;;6.90;99.90;;;;;;4992298;28;20088;-51
2022/03/28 01:24:45;;;;;;;2.50;1.57;;;6.90;99.90;;;;;;4995096;28;20042;-49
2022/03/28 01:27:12;;;;;;;;;;;6.90;99.90;;;;;;4995859;28;21523;-53
2022/03/28 01:29:37;;;;;;;7.03;2.05;;;6.90;99.90;;;;;;5010583;28;19917;-51
2022/03/28 01:32:03;;;;;;;15.73;1.80;;;6.90;99.90;;;;;;4993176;28;20114;-54
2022/03/28 01:34:29;;;;;;;5.50;1.42;;;6.90;99.90;;;;;;4993730;28;20053;-53
2022/03/28 01:36:54;;;;;;;8.20;1.40;;;6.90;99.90;;;;;;4992471;28;20168;-52
2022/03/28 01:39:20;;;;;;;6.27;1.87;;;6.90;99.90;;;;;;5009454;28;20129;-53
2022/03/28 01:41:46;;;;;;;19.40;2.60;;;6.90;99.90;;;;;;5008795;28;20073;-53
2022/03/28 01:44:12;;;;;;;32.03;3.15;;;6.80;99.90;;;;;;4993461;28;20049;-50
2022/03/28 01:46:44;;;;;;;7.93;2.42;;;6.80;99.90;;;;;;4995481;28;20041;-49
2022/03/28 01:49:10;;;;;;;11.10;2.83;;;6.80;99.90;;;;;;5002425;28;20038;-52
2022/03/28 01:51:36;;;;;;;15.82;4.28;;;6.80;99.90;;;;;;4999674;28;20057;-53
2022/03/28 01:54:02;;;;;;;6.03;3.70;;;6.80;99.90;;;;;;5008183;28;20038;-51
2022/03/28 01:56:28;;;;;;;13.07;3.93;;;6.80;99.90;;;;;;5009601;28;20312;-50
2022/03/28 01:58:54;;;;;;;3.67;3.30;;;6.70;99.90;;;;;;5005770;28;20034;-49
2022/03/28 02:01:19;;;;;;;6.80;3.75;;;6.70;99.90;;;;;;5006724;28;20530;-49
2022/03/28 02:03:45;;;;;;;8.80;4.30;;;6.80;99.90;;;;;;4997228;28;20042;-49
2022/03/28 02:06:10;;;;;;;8.17;3.97;;;6.80;99.90;;;;;;5002527;28;20064;-49
2022/03/28 02:08:36;;;;;;;15.80;4.20;;;6.80;99.90;;;;;;4998932;28;20037;-49
2022/03/28 02:11:01;;;;;;;52.03;6.00;;;6.80;99.90;;;;;;4992073;28;20124;-49
2022/03/28 02:13:27;;;;;;;17.77;3.93;;;6.80;99.90;;;;;;5006767;28;20042;-49
2022/03/28 02:15:52;;;;;;;35.90;6.23;;;6.80;99.90;;;;;;5001253;28;20527;-51
2022/03/28 02:18:18;;;;;;;9.10;5.20;;;6.80;99.90;;;;;;4999082;28;20070;-51
2022/03/28 02:20:44;;;;;;;8.93;4.53;;;6.70;99.90;;;;;;4997868;28;20042;-50
2022/03/28 02:23:09;;;;;;;40.73;7.10;;;6.80;99.90;;;;;;4999357;28;20057;-49
2022/03/28 02:25:37;;;;;;;10.03;6.20;;;6.80;99.90;;;;;;4993423;28;20042;-49
2022/03/28 02:28:03;;;;;;;11.85;6.18;;;6.80;99.90;;;;;;5004486;28;20038;-49
2022/03/28 02:30:30;;;;;;;;;;;6.80;99.90;;;;;;4991721;28;20500;-49
2022/03/28 02:32:56;;;;;;;11.65;5.68;;;6.70;99.90;;;;;;4992708;28;19972;-49
2022/03/28 02:35:22;;;;;;;16.30;6.65;;;6.70;99.90;;;;;;4990188;28;20046;-49
2022/03/28 02:37:48;;;;;;;17.83;7.55;;;6.70;99.90;;;;;;5000296;28;20505;-49
2022/03/28 02:40:13;;;;;;;16.07;7.10;;;6.70;99.90;;;;;;4990829;28;20096;-50
2022/03/28 02:42:39;;;;;;;24.40;9.27;;;6.70;99.90;;;;;;4999829;28;20285;-49
2022/03/28 02:45:05;;;;;;;11.23;7.75;;;6.70;99.90;;;;;;5006477;28;20077;-49
2022/03/28 02:47:31;;;;;;;25.98;7.82;;;6.70;99.90;;;;;;4990617;28;20038;-51
2022/03/28 02:49:57;;;;;;;18.75;8.27;;;6.70;99.90;;;;;;5009956;28;20412;-50
2022/03/28 02:52:22;;;;;;;16.03;8.03;;;6.70;99.90;;;;;;5003861;28;20492;-49
2022/03/28 02:54:49;;;;;;;17.63;8.50;;;6.70;99.90;;;;;;5000986;28;20043;-49
2022/03/28 02:57:14;;;;;;;10.38;7.28;;;6.70;99.90;;;;;;4994781;28;20097;-51
2022/03/28 02:59:40;;;;;;;15.38;8.57;;;6.70;99.90;;;;;;4998925;28;20428;-49
2022/03/28 03:02:06;;;;;;;14.15;9.32;;;6.70;99.90;;;;;;5010791;28;20495;-50
2022/03/28 03:04:32;;;;;;;43.42;11.48;;;6.70;99.90;;;;;;4999730;28;20039;-49
2022/03/28 03:06:58;;;;;;;37.22;10.27;;;6.70;99.90;;;;;;4998684;28;20045;-50
2022/03/28 03:09:24;;;;;;;36.05;9.10;;;6.70;99.90;;;;;;5002022;28;20117;-50
2022/03/28 03:11:50;;;;;;;15.73;8.23;;;6.70;99.90;;;;;;4994435;28;20133;-49
2022/03/28 03:14:16;;;;;;;21.15;10.63;;;6.70;99.90;;;;;;4996353;28;20628;-52
2022/03/28 03:16:41;;;;;;;13.53;9.50;;;6.70;99.90;;;;;;5007677;28;20092;-49
2022/03/28 03:19:07;;;;;;;30.73;9.50;;;6.60;99.90;;;;;;5002873;28;20034;-49
2022/03/28 03:21:33;;;;;;;47.95;11.07;;;6.60;99.90;;;;;;5009522;28;20046;-49
2022/03/28 03:23:58;;;;;;;24.10;10.47;;;6.60;99.90;;;;;;5006230;28;20042;-50
2022/03/28 03:26:24;;;;;;;32.73;10.77;;;6.60;99.90;;;;;;5011000;28;20046;-49
2022/03/28 03:28:50;;;;;;;51.30;12.20;;;6.60;99.90;;;;;;4999383;28;20033;-49
2022/03/28 03:31:15;;;;;;;81.47;14.20;;;6.60;99.90;;;;;;4999344;28;20053;-50
2022/03/28 03:33:41;;;;;;;19.17;11.40;;;6.60;99.90;;;;;;4995888;28;20048;-51
2022/03/28 03:36:07;;;;;;;46.70;12.65;;;6.50;99.90;;;;;;4997650;28;20435;-50
2022/03/28 03:38:33;;;;;;;19.33;10.80;;;6.50;99.90;;;;;;5011213;28;20064;-53
2022/03/28 03:40:58;;;;;;;45.97;13.00;;;6.50;99.90;;;;;;5011716;28;20034;-50
2022/03/28 03:43:25;;;;;;;26.77;10.47;;;6.50;99.90;;;;;;5004032;28;20034;-49
2022/03/28 03:45:51;;;;;;;22.40;11.85;;;6.50;99.90;;;;;;5002642;28;20042;-49
2022/03/28 03:48:18;;;;;;;46.97;11.32;;;6.60;99.90;;;;;;5003874;28;20114;-51
2022/03/28 03:50:44;;;;;;;25.83;11.73;;;6.50;99.90;;;;;;5010221;28;20045;-50
2022/03/28 03:53:10;;;;;;;19.97;11.03;;;6.60;99.90;;;;;;5004441;28;20027;-53
2022/03/28 03:55:36;;;;;;;24.20;11.70;;;6.50;99.90;;;;;;4997199;28;20289;-53
2022/03/28 03:58:02;;;;;;;20.83;11.88;;;6.50;99.90;;;;;;5012411;28;20065;-49
2022/03/28 04:00:28;;;;;;;18.00;12.32;;;6.60;99.90;;;;;;4997432;28;20050;-52
2022/03/28 04:02:53;;;;;;;28.90;13.00;;;6.60;99.90;;;;;;4996883;28;20606;-49
2022/03/28 04:05:19;;;;;;;24.20;11.93;;;6.60;99.90;;;;;;5010625;28;20042;-52
2022/03/28 04:07:44;;;;;;;28.10;12.20;;;6.60;99.90;;;;;;5010486;28;20087;-51
2022/03/28 04:10:10;;;;;;;17.55;11.40;;;6.50;99.90;;;;;;5010275;28;20045;-49
2022/03/28 04:12:37;;;;;;;44.20;13.75;;;6.50;99.90;;;;;;5012496;28;20118;-49
2022/03/28 04:15:03;;;;;;;37.75;11.57;;;6.50;99.90;;;;;;5009352;28;20038;-49
2022/03/28 04:17:29;;;;;;;71.65;14.07;;;6.50;99.90;;;;;;5003692;28;20054;-49
2022/03/28 04:19:58;;;;;;;25.73;12.60;;;6.50;99.90;;;;;;4996653;28;20050;-49
2022/03/28 04:22:24;;;;;;;24.10;12.57;;;6.50;99.90;;;;;;4997740;28;20058;-49
2022/03/28 04:24:50;;;;;;;16.05;11.70;;;6.50;99.90;;;;;;5002808;28;20046;-50
2022/03/28 04:27:16;;;;;;;21.50;12.57;;;6.50;99.90;;;;;;5004522;28;20046;-53
2022/03/28 04:29:41;;;;;;;29.90;13.10;;;6.60;99.90;;;;;;5006186;28;20042;-49
2022/03/28 04:32:07;;;;;;;21.87;11.10;;;6.60;99.90;;;;;;5011704;28;20091;-49
2022/03/28 04:34:33;;;;;;;20.10;11.02;;;6.60;99.90;;;;;;5007940;28;20050;-49
2022/03/28 04:36:58;;;;;;;17.30;10.67;;;6.60;99.90;;;;;;5008999;28;20045;-50
2022/03/28 04:39:24;;;;;;;18.03;11.47;;;6.60;99.90;;;;;;5006224;28;20050;-49
2022/03/28 04:41:49;;;;;;;29.27;12.27;;;6.60;99.90;;;;;;5009440;28;20049;-51
2022/03/28 04:44:15;;;;;;;20.10;10.90;;;6.60;99.90;;;;;;5010143;28;20153;-50
2022/03/28 04:46:40;;;;;;;22.50;10.97;;;6.60;99.90;;;;;;5008835;28;20056;-52
2022/03/28 04:49:06;;;;;;;17.07;10.13;;;6.60;99.90;;;;;;5000394;28;20059;-49
2022/03/28 04:51:32;;;;;;;14.93;10.43;;;6.60;99.90;;;;;;5002150;28;20116;-48
2022/03/28 04:53:57;;;;;;;14.35;10.05;;;6.60;99.90;;;;;;4992371;28;20389;-50
2022/03/28 04:56:23;;;;;;;24.93;12.00;;;6.60;99.90;;;;;;4994040;28;20511;-49
2022/03/28 04:58:48;;;;;;;35.70;11.20;;;6.50;99.90;;;;;;4993277;28;20035;-49
2022/03/28 05:01:14;;;;;;;22.23;10.93;;;6.60;99.90;;;;;;4999147;28;20045;-51
2022/03/28 05:03:39;;;;;;;19.33;11.53;;;6.50;99.90;;;;;;5006296;28;20173;-49
2022/03/28 05:06:05;;;;;;;24.20;11.27;;;6.50;99.90;;;;;;4999844;28;20065;-49
2022/03/28 05:08:30;;;;;;;16.97;11.37;;;6.50;99.90;;;;;;4998985;28;20391;-52
2022/03/28 05:10:56;;;;;;;32.33;13.03;;;6.60;99.90;;;;;;4997926;28;20042;-48
2022/03/28 05:13:25;;;;;;;29.57;12.03;;;6.60;99.90;;;;;;5010571;28;20033;-49
2022/03/28 05:15:51;;;;;;;16.13;10.68;;;6.60;99.90;;;;;;5009406;28;20324;-50
2022/03/28 05:18:16;;;;;;;24.93;10.20;;;6.60;99.90;;;;;;5010919;28;20042;-51
2022/03/28 05:20:42;;;;;;;24.57;9.57;;;6.60;99.90;;;;;;5005335;28;20080;-50
2022/03/28 05:23:07;;;;;;;25.00;9.00;;;6.60;99.90;;;;;;5010630;28;20095;-50
2022/03/28 05:25:33;;;;;;;12.50;9.87;;;6.50;99.90;;;;;;4992205;28;20072;-49
2022/03/28 05:27:58;;;;;;;15.37;9.83;;;6.50;99.90;;;;;;4993029;28;20049;-49
2022/03/28 05:30:24;;;;;;;16.37;10.50;;;6.50;99.90;;;;;;4993170;28;20041;-50
2022/03/28 05:32:50;;;;;;;14.70;9.77;;;6.50;99.90;;;;;;4995371;28;20507;-53
2022/03/28 05:35:16;;;;;;;19.00;10.23;;;6.50;99.90;;;;;;4991015;28;20496;-50
2022/03/28 05:37:42;;;;;;;18.23;11.10;;;6.50;99.90;;;;;;5006936;28;20065;-49
2022/03/28 05:40:10;;;;;;;16.17;10.43;;;6.50;99.90;;;;;;5007608;28;20041;-51
2022/03/28 05:42:36;;;;;;;16.73;11.05;;;6.50;99.90;;;;;;5008740;28;20037;-50
2022/03/28 05:45:03;;;;;;;13.77;10.40;;;6.50;99.90;;;;;;4994838;28;20042;-53
2022/03/28 05:47:29;;;;;;;23.52;10.77;;;6.50;99.90;;;;;;4995948;28;20049;-51
2022/03/28 05:49:54;;;;;;;18.37;10.10;;;6.50;99.90;;;;;;4995346;28;20049;-50
2022/03/28 05:52:20;;;;;;;17.50;10.80;;;6.50;99.90;;;;;;4997726;28;20086;-50
2022/03/28 05:54:45;;;;;;;19.07;10.97;;;6.50;99.90;;;;;;5004551;28;20026;-53
2022/03/28 05:57:12;;;;;;;17.43;11.97;;;6.50;99.90;;;;;;5001336;28;20433;-53
2022/03/28 05:59:38;;;;;;;14.70;10.63;;;6.50;99.90;;;;;;4991488;28;20125;-49
2022/03/28 06:02:04;;;;;;;16.02;11.23;;;6.60;99.90;;;;;;4999097;28;20451;-49
2022/03/28 06:04:30;;;;;;;32.92;12.63;;;6.60;99.90;;;;;;5008451;28;20132;-50
2022/03/28 06:06:55;;;;;;;36.17;13.15;;;6.60;99.90;;;;;;4999149;28;20117;-52
2022/03/28 06:09:21;;;;;;;34.63;14.13;;;6.50;99.90;;;;;;5009878;28;20046;-50
2022/03/28 06:11:47;;;;;;;26.20;15.07;;;6.50;99.90;;;;;;5006948;28;20045;-50
2022/03/28 06:14:12;;;;;;;20.33;12.73;;;6.50;99.90;;;;;;4996035;28;20820;-51
2022/03/28 06:16:38;;;;;;;24.57;15.07;;;6.50;99.90;;;;;;5006070;28;20046;-53
2022/03/28 06:19:04;;;;;;;23.07;13.20;;;6.50;99.90;;;;;;5004078;28;20065;-53
2022/03/28 06:21:30;;;;;;;25.02;14.95;;;6.50;99.90;;;;;;5003870;28;20776;-52
2022/03/28 06:23:57;;;;;;;;;;;6.60;99.90;;;;;;5001197;28;20034;-50
2022/03/28 06:26:23;;;;;;;27.30;14.45;;;6.60;99.90;;;;;;5002876;28;19917;-51
2022/03/28 06:28:49;;;;;;;51.97;17.60;;;6.50;99.90;;;;;;5009791;28;20092;-49
2022/03/28 06:31:15;;;;;;;36.75;16.33;;;6.50;99.90;;;;;;5003739;28;20545;-51
2022/03/28 06:33:41;;;;;;;25.23;15.43;;;6.50;99.90;;;;;;4997194;28;20054;-51
2022/03/28 06:36:07;;;;;;;26.88;15.07;;;6.50;99.90;;;;;;5010051;28;20418;-52
2022/03/28 06:38:32;;;;;;;30.13;15.65;;;6.50;99.90;;;;;;4998588;28;20038;-51
2022/03/28 06:40:58;;;;;;;52.57;17.13;;;6.50;99.90;;;;;;4993225;28;20196;-47
2022/03/28 06:43:23;;;;;;;25.33;15.33;;;6.50;99.90;;;;;;4996173;28;20038;-51
2022/03/28 06:45:50;;;;;;;23.30;14.23;;;6.50;99.90;;;;;;5008276;28;20124;-49
2022/03/28 06:48:16;;;;;;;24.98;16.35;;;6.50;99.90;;;;;;5006003;28;20113;-49
2022/03/28 06:50:42;;;;;;;31.55;17.20;;;6.50;99.90;;;;;;5006235;28;20035;-52
2022/03/28 06:53:07;;;;;;;28.10;18.17;;;6.50;99.90;;;;;;4990773;28;20100;-49
2022/03/28 06:55:33;;;;;;;31.03;16.60;;;6.50;99.90;;;;;;4999197;28;20042;-51
2022/03/28 06:57:59;;;;;;;30.87;14.80;;;6.50;99.90;;;;;;4997824;28;20041;-51
2022/03/28 07:00:24;;;;;;;22.60;14.43;;;6.60;99.90;;;;;;5009262;28;20406;-51
2022/03/28 07:02:50;;;;;;;20.77;13.80;;;6.60;99.90;;;;;;5001667;28;20464;-52
2022/03/28 07:05:15;;;;;;;25.57;16.40;;;6.70;99.90;;;;;;4999467;28;20368;-53
2022/03/28 07:07:46;;;;;;;25.33;15.52;;;6.70;99.90;;;;;;5004364;28;20056;-49
2022/03/28 07:10:13;;;;;;;42.95;18.85;;;6.70;99.90;;;;;;4995019;28;20048;-49
2022/03/28 07:12:39;;;;;;;28.08;15.30;;;6.70;99.90;;;;;;4999159;28;20041;-50
2022/03/28 07:15:06;;;;;;;22.33;14.63;;;6.70;99.90;;;;;;5007967;28;20042;-48
2022/03/28 07:18:02;;;;;;;28.95;14.90;;;6.70;99.90;;;;;;4991300;28;20047;-53
2022/03/28 07:20:29;;;;;;;20.85;13.20;;;6.70;99.90;;;;;;4997577;28;20046;-48
2022/03/28 07:22:55;;;;;;;21.42;15.20;;;6.70;99.90;;;;;;5004259;28;20041;-51
2022/03/28 07:25:22;;;;;;;22.73;14.30;;;6.80;99.90;;;;;;4992653;28;20038;-50
2022/03/28 07:27:49;;;;;;;40.45;18.23;;;6.80;99.90;;;;;;5003299;28;20038;-49
2022/03/28 07:30:15;;;;;;;26.50;15.18;;;6.80;99.90;;;;;;5002280;28;20539;-51
2022/03/28 07:32:41;;;;;;;27.15;16.65;;;6.80;99.90;;;;;;5002217;28;20045;-51
2022/03/28 07:35:08;;;;;;;22.00;15.88;;;6.90;99.90;;;;;;5001170;28;20084;-48
2022/03/28 07:37:34;;;;;;;20.42;14.45;;;6.90;99.90;;;;;;5003318;28;20077;-53
2022/03/28 07:40:00;;;;;;;26.52;15.63;;;6.90;99.90;;;;;;5000935;28;20424;-49
2022/03/28 07:42:26;;;;;;;25.17;16.92;;;6.90;99.90;;;;;;4992041;28;20061;-49
2022/03/28 07:44:55;;;;;;;62.38;21.77;;;7.00;99.90;;;;;;4993596;28;20037;-49
2022/03/28 07:47:25;;;;;;;27.58;16.30;;;7.00;99.90;;;;;;5001058;28;20048;-53
2022/03/28 07:49:52;;;;;;;28.17;15.52;;;7.00;99.90;;;;;;5003620;28;20034;-52
2022/03/28 07:52:18;;;;;;;23.67;15.77;;;7.00;99.90;;;;;;5006375;28;20039;-49
2022/03/28 07:54:44;;;;;;;32.40;17.00;;;7.00;99.90;;;;;;5009330;28;20483;-48
2022/03/28 07:57:11;;;;;;;27.77;16.50;;;7.00;99.90;;;;;;5001119;28;20053;-51
2022/03/28 07:59:38;;;;;;;39.25;17.13;;;7.00;99.90;;;;;;5004385;28;20033;-50
2022/03/28 08:02:04;;;;;;;23.55;15.13;;;7.00;99.90;;;;;;5003064;28;20042;-49
2022/03/28 08:04:31;;;;;;;29.23;16.10;;;7.00;99.90;;;;;;5004294;28;20308;-50
2022/03/28 08:06:57;;;;;;;38.63;17.00;;;7.00;99.90;;;;;;4996426;28;20167;-52
2022/03/28 08:09:22;;;;;;;43.43;17.47;;;7.10;99.90;;;;;;5010669;28;20042;-48
2022/03/28 08:11:48;;;;;;;20.67;13.33;;;7.10;99.90;;;;;;5003175;28;20501;-49
2022/03/28 08:14:13;;;;;;;19.37;13.43;;;7.10;99.90;;;;;;5002996;28;20551;-52
2022/03/28 08:16:39;;;;;;;17.70;14.03;;;7.00;99.90;;;;;;5003266;28;20042;-52
2022/03/28 08:19:04;;;;;;;25.33;13.97;;;7.00;99.90;;;;;;5000440;28;20488;-49
2022/03/28 08:21:31;;;;;;;22.73;13.20;;;7.10;99.90;;;;;;5006555;28;20293;-48
2022/03/28 08:23:57;;;;;;;20.38;13.10;;;7.10;99.90;;;;;;4998349;28;20041;-50
2022/03/28 08:26:22;;;;;;;35.60;15.33;;;7.00;99.90;;;;;;5011586;28;20046;-53
2022/03/28 08:28:48;;;;;;;39.00;15.60;;;7.00;99.90;;;;;;5012520;28;20038;-53
2022/03/28 08:31:13;;;;;;;20.37;12.57;;;7.10;99.90;;;;;;5012778;28;20389;-49
2022/03/28 08:33:39;;;;;;;19.17;13.83;;;7.10;99.90;;;;;;5012743;28;20046;-52
2022/03/28 08:36:04;;;;;;;20.53;13.30;;;7.10;99.90;;;;;;5011974;28;20049;-52
2022/03/28 08:38:31;;;;;;;22.27;14.10;;;7.10;99.90;;;;;;5011765;28;20037;-53
2022/03/28 08:40:57;;;;;;;26.23;16.23;;;7.10;99.90;;;;;;5012204;28;20125;-51
2022/03/28 08:43:24;;;;;;;19.65;13.68;;;7.20;99.90;;;;;;5012487;28;20456;-49
2022/03/28 08:45:51;;;;;;;26.27;14.40;;;7.20;99.90;;;;;;5012162;28;20403;-49
2022/03/28 08:48:17;;;;;;;18.48;13.48;;;7.20;99.90;;;;;;5010767;28;20072;-48
2022/03/28 08:50:46;;;;;;;22.67;12.68;;;7.20;99.90;;;;;;5012250;28;20050;-53
2022/03/28 08:53:13;;;;;;;25.98;15.68;;;7.30;99.90;;;;;;5011494;28;20096;-49
2022/03/28 08:55:41;;;;;;;24.00;14.55;;;7.30;99.90;;;;;;5011839;28;20462;-49
2022/03/28 08:58:08;;;;;;;20.48;14.50;;;7.30;99.90;;;;;;5012333;28;20045;-50
2022/03/28 09:00:33;;;;;;;;;;;7.40;99.90;;;;;;5012629;28;20046;-51
2022/03/28 09:02:59;;;;;;;20.10;12.57;;;7.40;99.90;;;;;;5012671;28;19921;-48
2022/03/28 09:05:33;;;;;;;24.10;14.50;;;7.40;99.90;;;;;;5011607;28;20112;-53
2022/03/28 09:07:59;;;;;;;19.08;12.50;;;7.40;99.90;;;;;;5011679;28;20045;-49
2022/03/28 09:10:32;;;;;;;17.92;11.82;;;7.40;99.90;;;;;;5011966;28;20049;-49
2022/03/28 09:13:05;;;;;;;14.10;10.30;;;7.50;99.90;;;;;;5012145;28;20041;-49
2022/03/28 09:15:56;;;;;;;16.23;9.82;;;7.50;99.90;;;;;;5011143;28;20042;-52
2022/03/28 09:18:25;;;;;;;19.52;11.05;;;7.60;99.90;;;;;;5011160;28;20057;-50
2022/03/28 09:20:54;;;;;;;15.80;9.55;;;7.60;99.90;;;;;;5010190;28;20042;-51
2022/03/28 09:23:39;;;;;;;10.98;7.85;;;7.50;99.90;;;;;;5011592;28;20038;-51
2022/03/28 09:26:26;;;;;;;10.02;7.72;;;7.50;99.90;;;;;;5011512;28;20391;-49
2022/03/28 09:29:00;;;;;;;13.83;9.13;;;7.60;99.90;;;;;;5011136;28;20045;-51
2022/03/28 09:31:37;;;;;;;11.98;8.25;;;7.60;99.90;;;;;;5011549;28;20623;-53
2022/03/28 09:34:09;;;;;;;15.60;8.80;;;7.60;99.90;;;;;;5011451;28;20042;-48
2022/03/28 09:36:53;;;;;;;10.88;7.43;;;7.70;99.90;;;;;;5009712;28;20527;-48
2022/03/28 09:39:22;;;;;;;11.50;7.93;;;7.80;99.90;;;;;;5011218;28;20137;-53
2022/03/28 09:42:03;;;;;;;10.75;7.25;;;7.80;99.90;;;;;;5011225;28;20033;-52
2022/03/28 09:44:50;;;;;;;9.27;7.20;;;7.80;99.90;;;;;;5011411;28;20046;-52
2022/03/28 09:47:19;;;;;;;26.08;8.85;;;7.80;99.90;;;;;;5010745;28;20135;-49
2022/03/28 09:49:47;;;;;;;14.15;7.78;;;7.80;99.90;;;;;;5011075;28;20049;-51
2022/03/28 09:52:17;;;;;;;8.25;6.10;;;7.90;99.90;;;;;;5011080;28;20404;-48
2022/03/28 09:54:44;;;;;;;9.02;6.50;;;8.00;99.90;;;;;;5010585;28;20041;-49
2022/03/28 09:57:12;;;;;;;9.77;6.82;;;8.00;99.90;;;;;;5010864;28;20427;-52
2022/03/28 09:59:39;;;;;;;10.13;6.72;;;8.10;99.90;;;;;;5010255;28;20049;-49
2022/03/28 10:02:18;;;;;;;10.90;7.00;;;8.20;99.90;;;;;;5010546;28;20037;-49
2022/03/28 10:04:46;;;;;;;15.20;7.65;;;8.20;99.90;;;;;;5010266;28;20034;-51
2022/03/28 10:07:11;;;;;;;9.40;7.55;;;8.30;99.90;;;;;;5010985;28;20058;-53
2022/03/28 10:09:38;;;;;;;8.23;6.33;;;8.30;99.90;;;;;;5010584;28;20046;-50
2022/03/28 10:12:06;;;;;;;11.70;7.32;;;8.40;99.90;;;;;;5010882;28;20038;-53
2022/03/28 10:14:33;;;;;;;10.00;6.53;;;8.40;99.90;;;;;;5009952;28;20041;-49
2022/03/28 10:17:01;;;;;;;9.55;6.95;;;8.40;99.90;;;;;;5010820;28;20180;-52
2022/03/28 10:19:27;;;;;;;11.07;6.55;;;8.40;99.90;;;;;;5010399;28;20045;-51
2022/03/28 10:21:54;;;;;;;6.53;5.70;;;8.40;99.90;;;;;;5010419;28;20084;-52
2022/03/28 10:24:24;;;;;;;10.18;8.10;;;8.40;99.90;;;;;;5010861;28;20089;-50
2022/03/28 10:26:56;;;;;;;8.90;6.30;;;8.40;99.90;;;;;;5010032;28;20046;-53
2022/03/28 10:29:23;;;;;;;11.50;7.13;;;8.30;99.90;;;;;;5010632;28;20046;-51
2022/03/28 10:32:06;;;;;;;7.38;5.43;;;8.30;99.90;;;;;;5010824;28;20037;-52
2022/03/28 10:34:46;;;;;;;9.20;6.40;;;8.40;99.90;;;;;;5010313;28;20038;-50
2022/03/28 10:37:25;;;;;;;10.00;5.85;;;8.40;99.90;;;;;;5009275;28;20100;-51
2022/03/28 10:40:14;;;;;;;8.50;6.25;;;8.50;99.90;;;;;;5010608;28;20034;-51
2022/03/28 10:42:47;;;;;;;10.38;6.55;;;8.50;99.90;;;;;;5010266;28;20081;-52
2022/03/28 10:45:19;;;;;;;6.70;5.65;;;8.60;99.90;;;;;;5010147;28;20112;-50
2022/03/28 10:47:55;;;;;;;8.77;6.80;;;8.60;99.90;;;;;;5009848;28;20038;-50
2022/03/28 10:50:28;;;;;;;7.78;6.13;;;8.60;99.90;;;;;;5010589;28;20073;-53
2022/03/28 10:53:16;;;;;;;7.25;6.35;;;8.60;99.90;;;;;;5010313;28;20056;-53
2022/03/28 10:55:49;;;;;;;7.82;6.07;;;8.70;99.90;;;;;;5010299;28;20052;-53
2022/03/28 10:58:24;;;;;;;6.18;5.28;;;8.80;99.90;;;;;;5009582;28;20078;-53
2022/03/28 11:01:11;;;;;;;7.93;5.57;;;9.00;99.90;;;;;;5010621;28;20045;-52
2022/03/28 11:03:44;;;;;;;5.78;5.15;;;9.10;99.90;;;;;;5010205;28;20037;-50
2022/03/28 11:06:11;;;;;;;6.45;5.72;;;9.20;99.90;;;;;;5009717;28;20539;-49
2022/03/28 11:08:39;;;;;;;7.45;5.78;;;9.40;99.90;;;;;;5009568;28;20404;-49
2022/03/28 11:11:15;;;;;;;6.82;5.55;;;9.60;99.90;;;;;;5012184;28;20511;-50
2022/03/28 11:13:41;;;;;;;7.85;5.30;;;9.80;99.90;;;;;;5013863;28;20173;-50
2022/03/28 11:16:19;;;;;;;9.70;6.50;;;10.00;99.90;;;;;;5013614;28;20042;-50
2022/03/28 11:19:24;;;;;;;6.53;5.25;;;10.10;99.90;;;;;;5013750;28;20038;-50
2022/03/28 11:22:02;;;;;;;7.28;5.75;;;10.30;99.90;;;;;;5013749;28;20050;-51
2022/03/28 11:24:52;;;;;;;5.28;4.70;;;10.40;99.90;;;;;;5013726;28;20045;-50
2022/03/28 11:27:19;;;;;;;7.57;5.00;;;10.60;99.90;;;;;;5013248;28;20041;-49
2022/03/28 11:29:46;;;;;;;6.07;4.75;;;10.70;99.90;;;;;;5013663;28;20042;-49
2022/03/28 11:32:18;;;;;;;6.15;5.13;;;10.80;99.90;;;;;;5013814;28;20395;-49
2022/03/28 11:34:52;;;;;;;5.22;4.68;;;10.80;99.90;;;;;;5013267;28;20120;-49
2022/03/28 11:37:21;;;;;;;6.55;5.50;;;10.90;99.90;;;;;;5013403;28;20690;-50
2022/03/28 11:40:07;;;;;;;9.95;4.72;;;11.00;99.90;;;;;;5013085;28;20038;-50
2022/03/28 11:42:35;;;;;;;7.70;5.55;;;11.20;99.90;;;;;;5013393;28;20041;-49
2022/03/28 11:45:09;;;;;;;7.50;4.72;;;11.40;99.90;;;;;;5013142;28;20477;-49
2022/03/28 11:47:40;;;;;;;6.85;5.40;;;11.60;99.90;;;;;;5013066;28;20042;-50
2022/03/28 11:50:09;;;;;;;8.25;5.00;;;11.70;99.90;;;;;;5013277;28;20084;-50
2022/03/28 11:52:36;;;;;;;5.90;4.90;;;12.00;99.90;;;;;;5012783;28;20053;-49
2022/03/28 11:55:16;;;;;;;5.70;5.05;;;12.10;99.90;;;;;;5012861;28;20084;-50
2022/03/28 12:00:33;;;;;;;5.65;5.10;;;12.30;99.90;;;;;;5013263;28;20053;-50
2022/03/28 12:02:59;;;;;;;6.80;4.93;;;12.50;99.90;;;;;;5012495;28;20045;-50
2022/03/28 12:05:43;;;;;;;5.57;4.47;;;12.60;99.90;;;;;;5012685;28;20392;-50
2022/03/28 12:08:14;;;;;;;4.80;4.28;;;12.70;99.90;;;;;;5012997;28;20478;-49
2022/03/28 12:10:43;;;;;;;7.00;5.13;;;12.80;99.90;;;;;;5012006;28;20128;-51
2022/03/28 12:13:09;;;;;;;7.63;5.10;;;12.90;99.90;;;;;;5012757;28;20416;-50
2022/03/28 12:15:43;;;;;;;5.43;4.93;;;13.00;99.90;;;;;;5012864;28;20045;-49
2022/03/28 12:18:10;;;;;;;4.60;3.80;;;13.20;99.90;;;;;;5012962;28;20570;-50
2022/03/28 12:20:39;;;;;;;8.68;5.20;;;13.40;99.90;;;;;;5012627;28;20461;-49
2022/03/28 12:23:06;;;;;;;6.88;4.95;;;13.50;99.90;;;;;;5012577;28;20038;-54
2022/03/28 12:25:41;;;;;;;6.03;3.97;;;13.50;99.90;;;;;;5012224;28;20048;-51
2022/03/28 12:28:13;;;;;;;6.40;5.45;;;13.50;99.00;;;;;;5012476;28;20829;-52
2022/03/28 12:30:45;;;;;;;7.80;5.22;;;13.50;99.90;;;;;;5012520;28;20125;-50
2022/03/28 12:33:12;;;;;;;6.85;5.75;;;13.60;99.50;;;;;;5012686;28;20046;-49
2022/03/28 12:35:42;;;;;;;5.78;4.88;;;13.60;99.60;;;;;;5011832;28;20446;-51
2022/03/28 12:38:08;;;;;;;6.03;4.40;;;13.70;99.00;;;;;;5012601;28;20042;-53
2022/03/28 12:40:35;;;;;;;9.20;4.80;;;13.70;99.20;;;;;;5012179;28;20124;-51
2022/03/28 12:43:04;;;;;;;5.07;4.55;;;13.80;99.10;;;;;;5012548;28;20289;-52
2022/03/28 12:45:30;;;;;;;7.63;4.72;;;13.80;99.10;;;;;;5011841;28;20054;-54
2022/03/28 12:48:03;;;;;;;5.32;4.40;;;13.90;98.80;;;;;;5012063;28;20080;-53
2022/03/28 12:50:30;;;;;;;4.82;4.28;;;14.00;98.90;;;;;;5012188;28;20165;-51
2022/03/28 12:53:16;;;;;;;5.53;4.97;;;14.00;98.10;;;;;;5011509;28;20034;-50
2022/03/28 12:55:44;;;;;;;7.47;4.35;;;14.10;97.00;;;;;;5011983;28;20041;-53